Jennerstown, PA (15547)

9:44 PM EST on February 13, 2016 (GMT -0500)
APRSWXNET | | Change Station
CLOSE
Current Station
Personal Weather Station
Location: Sipesville, PA
Elevation: 1970 ft
Nearby Weather Stations
Active Advisory: Wind Chill Advisory Active Notice: Local Storm Report

Elev 1970 ft 40.12 °N, 79.10 °W | Updated 30 minutes ago

Overcast
Overcast
4 °F
Feels Like 4 °F
N
3
Wind Variable Wind from West
Gusts 12.0 mph

Today
High -- | Low -- °F
--% Chance of Precip.
Yesterday
High -- | Low -- °F
Precip. -- in
Pressure 30.23 in
Visibility 2.5 miles
Clouds Mostly Cloudy 2100 ft
Overcast 4000 ft
Windchill 4 °F
Dew Point 1 °F
Humidity 86%
Rainfall in
Snow Depth Not available.
7:12 AM 5:49 PM
Waxing Crescent, 36% visible
SPECI KJST 140234Z AUTO 28014G21KT 2 1/2SM -SN BKN021 OVC040 M17/M21 A3023 RMK AO2 P0000 T11671211 $
Pressure 30.23 in
Visibility 2.5 miles
Clouds Mostly Cloudy 2100 ft
Overcast 4000 ft
Windchill 4 °F
Dew Point 1 °F
Humidity 86%
Rainfall in
Snow Depth Not available.
7:12 AM 5:49 PM
Waxing Crescent, 36% visible
SPECI KJST 140234Z AUTO 28014G21KT 2 1/2SM -SN BKN021 OVC040 M17/M21 A3023 RMK AO2 P0000 T11671211 $

10-Day Weather Forecast

Almanac

Astronomy

Feb. 13, 2016 Rise Set
Actual Time
Civil Twilight
Nautical Twilight
Astronomical Twilight
Moon
Length of Visible Light
Length of Day
Tomorrow will be .
, % of the Moon is Illuminated

Today's Extremes

State Highs State Lows

Community

WunderPhotos

Upload Photos

1,892,731 photos uploaded!

WunderBlog® & News

Nearby

Air Quality

  Air Quality AQ Index Pollutant
Not available.

Snow Depth

Station Depth Elevation

Earthquake Activity

City Distance Mag. Time & Date
Minimum magnitude displayed is 2.5.

Coastal Water Temperatures

Place Temperature

Stations

Nearby Weather Stations

Station Location Temp. Windchill Dew Point Humidity Wind Precip. Elev Updated Type
                   

Watches & Warnings

Wind Chill Advisory
Issued: 3:44 PM EST Feb. 13, 2016 – National Weather Service

... Wind Chill Advisory remains in effect until 11 am EST Sunday...

* locations... the Laurel Highlands.

* Hazard types... dangerously cold wind chills.

* Wind chills... 20 to 25 below zero tonight.

* Timing... now through Sunday morning.

* Impacts... frostbite to exposed skin in just 15 to 30 minutes.
Hypothermia possible.

* Winds... northwest 15 to 25 mph with gusts up to 40 mph.

* Temperatures... around zero.

Precautionary/preparedness actions...

If you will be outdoors... dress in layers and wear a hat and
gloves. Young children... the elderly and the homeless are
especially vulnerable to the cold. Appropriate action should be
taken to ensure pets have adequate protection from the cold
temperatures.